• Join FlightAware (Why Join?)
  • Login
  • US Flag 
08:01AM EDT


 

Airport Tracker/Info


-or-


 

Live Flight TrackerFlight Track Log ✈ N633WC ✈ 01-Jul-2013 ✈ KAAO - KGRI

Flight Track Log - Related Links

Times and Time Zones

All times are in EDT time to prevent confusion due to time zone crossing. See the N633WC flight status page for this flight to view local times or setup timezone preferences in your user account.

Time Position Orientation Groundspeed Altitude Reporting Facility
EDT Latitude Longitude Course Direction KTS MPH feet Rate Location/Type
07:46PM 37.7650 -97.2206 North 140 161 2,100  Level Kansas City Center
07:47PM 37.8022 -97.2147 North 150 173 3,700 1,740 Climbing Kansas City Center
07:48PM 37.8397 -97.2300 342° North 148 170 5,300 1,200 Climbing Kansas City Center
07:49PM 37.8619 -97.2383 344° North 159 183 5,500 660 Climbing Kansas City Center
07:50PM 37.9142 -97.2600 342° North 193 222 6,400 1,080 Climbing Kansas City Center
07:51PM 37.9614 -97.2781 343° North 181 208 7,800 1,320 Climbing Kansas City Center
07:52PM 38.0144 -97.2981 343° North 170 196 9,200 1,260 Climbing Kansas City Center
07:53PM 38.0617 -97.3156 344° North 175 201 10,400 1,080 Climbing Kansas City Center
07:54PM 38.1083 -97.3314 345° North 174 200 11,500 1,020 Climbing Kansas City Center
07:55PM 38.1556 -97.3453 345° North 173 199 12,600 1,080 Climbing Kansas City Center
07:56PM 38.2025 -97.3600 346° North 174 200 13,800 1,080 Climbing Kansas City Center
07:57PM 38.2508 -97.3756 346° North 178 205 14,900 1,080 Climbing Kansas City Center
07:58PM 38.2978 -97.3922 344° North 176 203 16,100 1,200 Climbing Kansas City Center
07:59PM 38.3556 -97.4111 346° North 178 205 17,400 1,020 Climbing Kansas City Center
08:00PM 38.4039 -97.4278 345° North 179 206 18,300 900 Climbing Kansas City Center
08:01PM 38.4531 -97.4428 347° North 182 209 19,300 720 Climbing Kansas City Center
08:02PM 38.5031 -97.4594 345° North 185 213 19,900 300 Climbing Kansas City Center
08:03PM 38.5575 -97.4761 347° North 199 229 20,000  Climbing Kansas City Center
08:04PM 38.6161 -97.4939 347° North 214 246 20,000  Level Kansas City Center
08:05PM 38.6761 -97.5125 346° North 221 254 20,000  Level Kansas City Center
08:06PM 38.7492 -97.5336 347° North 220 253 20,000  Level Kansas City Center
08:07PM 38.8067 -97.5542 344° North 222 255 20,000  Level Kansas City Center
08:08PM 38.8636 -97.5739 345° North 222 255 20,000  Level Kansas City Center
08:09PM 38.9306 -97.5978 344° North 224 258 20,000  Level Kansas City Center
08:10PM 38.9903 -97.6192 344° North 229 264 20,000  Level Kansas City Center
08:11PM 39.0583 -97.6425 345° North 226 260 20,000  Level Kansas City Center
08:12PM 39.1161 -97.6608 346° North 224 258 20,000  Level Kansas City Center
08:13PM 39.1844 -97.6839 345° North 225 259 20,000  Level Kansas City Center
08:14PM 39.2389 -97.7036 344° North 227 261 20,000  Level Kansas City Center
08:15PM 39.2983 -97.7236 345° North 221 254 20,000  Level Kansas City Center
08:17PM 39.3714 -97.7497 345° North 226 260 20,000  Level Kansas City Center
08:18PM 39.4325 -97.7700 346° North 226 260 20,000  Level Kansas City Center
08:19PM 39.4942 -97.7908 345° North 228 262 20,000  Level Kansas City Center
08:20PM 39.5558 -97.8108 346° North 228 262 20,000  Level Kansas City Center
08:21PM 39.6172 -97.8322 345° North 228 262 20,000  Level Kansas City Center
08:21PM 39.6653 -97.8519 342° North 228 262 20,000  Level Minneapolis Center
08:22PM 39.7269 -97.8728 345° North 229 264 20,000  Level Minneapolis Center
08:24PM 39.7889 -97.8942 345° North 229 264 20,000  Level Minneapolis Center
08:25PM 39.8636 -97.9186 346° North 230 265 20,000  Level Minneapolis Center
08:26PM 39.9378 -97.9450 345° North 230 265 20,000  Level Minneapolis Center
08:27PM 40.0103 -97.9694 346° North 226 260 20,000 -720 Level Minneapolis Center
08:28PM 40.0739 -97.9933 344° North 233 268 18,600 -1,500 Descending Minneapolis Center
08:29PM 40.1447 -98.0183 345° North 255 293 16,900 -1,680 Descending Minneapolis Center
08:30PM 40.2139 -98.0486 342° North 261 300 15,200 -1,680 Descending Minneapolis Center
08:31PM 40.2822 -98.0761 343° North 259 298 13,500 -1,620 Descending Minneapolis Center
08:32PM 40.3508 -98.1003 345° North 255 293 11,900 -1,860 Descending Minneapolis Center
08:33PM 40.4192 -98.1258 344° North 255 293 9,800 -1,860 Descending Minneapolis Center
08:34PM 40.5008 -98.1533 346° North 253 291 8,100 -1,440 Descending Minneapolis Center
08:35PM 40.5622 -98.1753 345° North 234 269 6,900 -1,200 Descending Minneapolis Center
08:36PM 40.6236 -98.1986 344° North 231 266 5,700 -1,080 Descending Minneapolis Center
08:37PM 40.6836 -98.2197 345° North 228 262 4,700 -780 Descending Minneapolis Center
08:38PM 40.7414 -98.2472 340° North 225 259 4,100 -300 Descending Minneapolis Center
08:39PM 40.7922 -98.2797 334° Northwest 215 247 4,100 -240 Level Minneapolis Center
08:40PM 40.8508 -98.3111 338° Northwest 200 230 3,700 -600 Descending Minneapolis Center
08:41PM 40.8978 -98.3142 357° North 179 206 2,900 -720 Descending Minneapolis Center
08:42PM 40.9328 -98.3147 359° North 151 174 2,300 -600 Descending Minneapolis Center